Terminal Aerodrome Forecast
Issued by NWS Buffalo, NY

Home | Current Version | Previous Version | Text Only | Print | Product List | Glossary On
Versions: 1 2 3 4 5 6 7 8 9 10 11 12 13 14 15 16 17 18 19 20 21 22 23 24 25 26 27
000
FTUS41 KBUF 251034 AAB
TAFBUF
TAF AMD
KBUF 251034Z 2511/2606 05012KT 3SM -RA BR OVC004
     FM251500 05010KT 3SM -RA BR OVC007
     FM252000 06012KT P6SM OVC010
     FM260000 07010KT P6SM OVC007=

USA.gov is the U.S. government's official web portal to all federal, state and local government web resources and services.